Time;durP1;ratioP1;P1;durP2;ratioP2;P2;SDS_P1;SDS_P2;PMS_P1;PMS_P2;Temp;Humidity;BMP_temperature;BMP_pressure;BME280_temperature;BME280_humidity;BME280_pressure;Samples;Min_cycle;Max_cycle;Signal;HPM_P1;HPM_P2
2023/01/15 00:00:47;;;;;;;7.20;3.47;;;;;;;6.87;79.30;98553.47;5072657;28;20434;-82
2023/01/15 00:03:13;;;;;;;6.05;3.22;;;;;;;6.91;79.05;98547.22;5072632;28;20032;-82
2023/01/15 00:05:38;;;;;;;5.97;3.60;;;;;;;6.92;78.71;98540.28;5074116;28;20025;-82
2023/01/15 00:08:03;;;;;;;7.53;3.65;;;;;;;6.85;78.61;98521.63;5073807;28;20027;-83
2023/01/15 00:10:29;;;;;;;8.65;4.20;;;;;;;6.93;78.74;98521.25;5072640;28;20457;-81
2023/01/15 00:12:54;;;;;;;7.07;3.70;;;;;;;6.96;78.24;98527.13;5073534;28;20021;-83
2023/01/15 00:15:19;;;;;;;8.55;4.68;;;;;;;6.90;78.59;98505.84;5073699;28;20036;-82
2023/01/15 00:17:45;;;;;;;7.40;4.53;;;;;;;6.95;78.71;98517.69;5074012;28;20024;-82
2023/01/15 00:20:10;;;;;;;7.57;4.43;;;;;;;6.92;78.62;98515.22;5072900;28;20032;-80
2023/01/15 00:22:36;;;;;;;6.93;4.00;;;;;;;6.92;78.17;98509.22;5073746;28;20013;-85
2023/01/15 00:27:46;;;;;;;5.38;3.33;;;;;;;6.94;78.86;98508.22;5073793;28;20106;-84
2023/01/15 00:30:14;;;;;;;7.63;3.53;;;;;;;7.01;78.40;98516.53;5073163;28;20157;-82
2023/01/15 00:32:41;;;;;;;8.23;4.70;;;;;;;7.04;77.85;98523.28;5072243;28;20452;-81
2023/01/15 00:35:10;;;;;;;8.13;4.40;;;;;;;7.00;77.94;98501.91;5073199;28;20036;-81
2023/01/15 00:37:35;;;;;;;10.65;4.43;;;;;;;7.11;77.70;98512.53;5073066;28;20519;-81
2023/01/15 00:40:01;;;;;;;6.53;4.50;;;;;;;7.09;77.96;98511.81;5072998;28;20111;-81
2023/01/15 00:42:26;;;;;;;9.93;4.82;;;;;;;7.04;77.45;98489.63;5073120;28;20096;-81
2023/01/15 00:44:51;;;;;;;14.57;4.93;;;;;;;7.12;77.66;98501.28;5073367;28;20027;-80
2023/01/15 00:47:17;;;;;;;10.02;4.40;;;;;;;7.07;77.79;98486.88;5073018;28;20367;-78
2023/01/15 00:49:43;;;;;;;8.80;4.28;;;;;;;7.05;77.95;98479.22;5073129;28;20027;-78
2023/01/15 00:52:09;;;;;;;14.60;5.10;;;;;;;7.07;77.77;98476.53;5072767;28;20535;-79
2023/01/15 00:54:35;;;;;;;16.17;4.70;;;;;;;7.14;77.82;98485.66;5070014;28;20380;-78
2023/01/15 00:57:00;;;;;;;11.60;4.40;;;;;;;7.09;77.95;98480.72;5071928;28;20028;-78
2023/01/15 00:59:25;;;;;;;12.27;5.07;;;;;;;7.16;78.39;98491.59;5072832;28;20017;-81
2023/01/15 01:01:51;;;;;;;7.93;4.10;;;;;;;7.08;78.34;98475.63;5073060;28;20024;-80
2023/01/15 01:04:16;;;;;;;10.25;4.07;;;;;;;7.15;78.44;98471.81;5072549;28;20017;-80
2023/01/15 01:06:42;;;;;;;9.05;4.18;;;;;;;7.14;78.51;98465.78;5073094;28;20364;-80
2023/01/15 01:09:12;;;;;;;9.68;4.15;;;;;;;7.15;78.83;98458.84;5071140;28;20107;-82
2023/01/15 01:11:37;;;;;;;7.53;4.28;;;;;;;7.23;78.81;98467.91;5072540;28;20020;-80
2023/01/15 01:14:03;;;;;;;6.97;3.92;;;;;;;7.22;78.97;98476.59;5072339;28;20066;-80
2023/01/15 01:16:29;;;;;;;6.32;3.65;;;;;;;7.24;78.97;98472.16;5072608;28;20024;-79
2023/01/15 01:18:57;;;;;;;7.32;3.78;;;;;;;7.20;79.46;98465.47;5072381;28;20016;-78
2023/01/15 01:21:22;;;;;;;5.95;4.28;;;;;;;7.28;79.34;98472.00;5072374;28;20059;-78
2023/01/15 01:23:48;;;;;;;8.65;4.32;;;;;;;7.27;79.56;98462.56;5072350;28;20017;-78
2023/01/15 01:26:13;;;;;;;6.40;3.67;;;;;;;7.31;79.86;98470.09;5071947;28;20032;-79
2023/01/15 01:28:40;;;;;;;8.02;3.90;;;;;;;7.25;79.98;98447.94;5072361;28;20023;-79
2023/01/15 01:31:06;;;;;;;5.90;3.30;;;;;;;7.25;80.27;98437.59;5071719;28;20025;-79
2023/01/15 01:33:32;;;;;;;7.05;3.63;;;;;;;7.32;80.35;98435.50;5071918;28;20028;-79
2023/01/15 01:35:57;;;;;;;4.93;2.92;;;;;;;7.35;80.57;98447.47;5071865;28;20552;-79
2023/01/15 01:38:23;;;;;;;7.13;3.22;;;;;;;7.36;80.93;98444.78;5072085;28;20016;-79
2023/01/15 01:40:48;;;;;;;5.95;3.10;;;;;;;7.36;81.15;98444.78;5072000;28;20029;-82
2023/01/15 01:43:25;;;;;;;5.07;3.08;;;;;;;7.34;81.27;98436.28;5070738;28;20020;-84
2023/01/15 01:45:51;;;;;;;6.40;3.13;;;;;;;7.36;81.76;98437.00;5070922;28;20035;-84
2023/01/15 01:48:20;;;;;;;5.32;2.97;;;;;;;7.31;82.00;98438.19;5069094;28;20040;-84
2023/01/15 01:50:47;;;;;;;7.00;3.30;;;;;;;7.30;82.34;98428.75;5069512;28;20028;-84
2023/01/15 01:53:20;;;;;;;4.82;3.25;;;;;;;7.24;83.16;98414.34;5069451;28;20039;-84
2023/01/15 01:55:47;;;;;;;5.45;3.55;;;;;;;7.22;83.58;98416.19;5052589;28;20020;-84
2023/01/15 01:58:14;;;;;;;6.85;3.83;;;;;;;7.15;84.10;98413.09;5052256;28;20041;-84
2023/01/15 02:00:45;;;;;;;5.43;3.70;;;;;;;7.17;84.50;98416.44;5069515;28;20095;-83
2023/01/15 02:03:11;;;;;;;5.43;3.70;;;;;;;7.11;85.19;98400.38;5069158;28;20047;-82
2023/01/15 02:05:41;;;;;;;5.68;4.15;;;;;;;7.09;85.53;98404.81;5069361;28;20435;-82
2023/01/15 02:08:07;;;;;;;7.10;4.63;;;;;;;7.11;85.66;98418.50;5052143;28;20120;-82
2023/01/15 02:10:32;;;;;;;5.63;3.83;;;;;;;7.11;86.27;98418.50;5052479;28;20035;-83
2023/01/15 02:13:15;;;;;;;8.40;4.15;;;;;;;7.09;86.15;98413.41;5069226;28;20435;-83
2023/01/15 02:15:55;;;;;;;8.20;4.93;;;;;;;7.10;86.40;98409.06;5052437;28;20483;-84
2023/01/15 02:18:46;;;;;;;5.28;3.70;;;;;;;7.13;86.75;98411.50;5069478;28;20107;-81
2023/01/15 02:21:14;;;;;;;5.40;4.37;;;;;;;7.12;87.34;98407.22;5072006;28;20058;-81
2023/01/15 02:23:57;;;;;;;8.90;4.47;;;;;;;7.09;87.78;98392.69;5071773;28;20020;-84
2023/01/15 02:26:51;;;;;;;5.00;3.30;;;;;;;7.10;87.67;98390.94;5070298;28;20029;-76
2023/01/15 02:29:30;;;;;;;6.53;4.30;;;;;;;7.00;88.32;98362.97;5071420;28;20028;-76
2023/01/15 02:32:00;;;;;;;8.18;4.18;;;;;;;7.04;88.84;98361.03;5071666;28;20047;-82
2023/01/15 02:34:31;;;;;;;5.75;3.70;;;;;;;7.04;88.87;98370.53;5071631;28;20573;-85
2023/01/15 02:37:05;;;;;;;4.95;3.83;;;;;;;7.04;89.16;98366.22;5071640;28;20047;-84
2023/01/15 02:39:33;;;;;;;7.15;3.75;;;;;;;7.03;89.14;98367.13;5071574;28;20025;-83
2023/01/15 02:42:02;;;;;;;5.57;3.58;;;;;;;7.02;89.11;98357.69;5070032;28;20017;-82
2023/01/15 02:44:29;;;;;;;7.05;4.20;;;;;;;7.09;89.47;98379.75;5074483;28;20024;-82
2023/01/15 02:46:57;;;;;;;7.30;4.40;;;;;;;7.10;90.05;98378.00;5075620;28;20046;-81
2023/01/15 02:49:23;;;;;;;6.45;4.13;;;;;;;7.03;90.00;98355.94;5074978;28;20047;-80
2023/01/15 02:52:07;;;;;;;6.50;4.35;;;;;;;7.06;90.23;98355.78;5075440;28;20064;-80
2023/01/15 02:54:43;;;;;;;6.80;4.72;;;;;;;7.05;90.90;98343.75;5075213;28;20023;-80
2023/01/15 02:57:10;;;;;;;7.47;5.00;;;;;;;6.99;90.82;98331.94;5074984;28;20037;-80
2023/01/15 02:59:41;;;;;;;7.05;5.00;;;;;;;7.03;91.08;98335.22;5075026;28;20490;-80
2023/01/15 03:02:10;;;;;;;;;;;;;;;7.14;91.24;98348.44;5075122;28;20123;-80
2023/01/15 03:04:58;;;;;;;4.95;3.55;;;;;;;7.16;91.62;98351.78;5075030;28;19926;-80
2023/01/15 03:07:28;;;;;;;4.78;3.20;;;;;;;7.17;92.10;98336.16;5074812;28;20024;-80
2023/01/15 03:09:56;;;;;;;5.68;3.33;;;;;;;7.13;92.27;98328.66;5074846;28;20028;-81
2023/01/15 03:13:00;;;;;;;4.70;3.10;;;;;;;7.23;93.11;98342.75;5074620;28;20012;-81
2023/01/15 03:16:33;;;;;;;4.95;3.40;;;;;;;7.17;93.24;98320.63;5074693;28;20109;-81
2023/01/15 03:18:11;;;;;;;4.07;3.38;;;;;;;7.25;93.58;98323.66;5074289;28;20024;-82
2023/01/15 03:20:44;;;;;;;3.72;3.00;;;;;;;7.25;93.84;98315.88;5074738;28;20028;-77
2023/01/15 03:23:13;;;;;;;5.75;2.97;;;;;;;7.25;94.35;98309.88;5074788;28;20013;-77
2023/01/15 03:25:48;;;;;;;3.42;2.67;;;;;;;7.25;94.86;98282.22;5074860;28;20116;-77
2023/01/15 03:28:16;;;;;;;3.47;2.80;;;;;;;7.40;95.28;98300.41;5074708;28;20016;-77
2023/01/15 03:30:42;;;;;;;5.75;2.90;;;;;;;7.39;95.88;98302.16;5073351;28;20078;-82
2023/01/15 03:33:10;;;;;;;4.65;2.95;;;;;;;7.45;95.90;98306.16;5072769;28;20024;-83
2023/01/15 03:35:48;;;;;;;4.15;2.88;;;;;;;7.46;96.52;98311.28;5074451;28;20498;-85
2023/01/15 03:38:16;;;;;;;4.25;2.60;;;;;;;7.47;96.43;98299.16;5074325;28;20020;-85
2023/01/15 03:40:56;;;;;;;4.85;2.90;;;;;;;7.48;96.65;98295.63;5074471;28;20048;-82
2023/01/15 03:43:41;;;;;;;3.22;2.35;;;;;;;7.54;97.46;98289.25;5074423;28;20587;-82
2023/01/15 03:46:17;;;;;;;2.55;2.35;;;;;;;7.50;98.15;98276.50;5074277;28;20449;-82
2023/01/15 03:48:48;;;;;;;3.00;2.33;;;;;;;7.59;98.54;98295.88;5074328;28;20402;-81
2023/01/15 03:51:37;;;;;;;2.45;2.03;;;;;;;7.56;98.31;98285.69;5074091;28;20025;-82
2023/01/15 03:54:08;;;;;;;3.50;2.42;;;;;;;7.57;98.48;98283.91;5073362;28;20353;-82
2023/01/15 03:56:43;;;;;;;4.47;3.35;;;;;;;7.61;98.96;98281.06;5073648;28;20345;-83
2023/01/15 03:59:31;;;;;;;3.72;2.75;;;;;;;7.62;98.87;98276.72;5072562;28;20074;-81
2023/01/15 04:01:57;;;;;;;4.53;3.20;;;;;;;7.57;99.17;98266.63;5073990;28;20027;-84
2023/01/15 04:04:25;;;;;;;6.20;3.72;;;;;;;7.55;99.27;98283.19;5072307;28;20029;-85
2023/01/15 04:06:52;;;;;;;5.55;3.33;;;;;;;7.59;99.09;98293.28;5073987;28;20033;-84
2023/01/15 04:09:18;;;;;;;5.35;3.08;;;;;;;7.53;99.43;98280.66;5073761;28;20024;-84
2023/01/15 04:11:43;;;;;;;6.28;3.15;;;;;;;7.56;99.68;98282.25;5074137;28;20099;-84
2023/01/15 04:14:12;;;;;;;3.90;3.00;;;;;;;7.53;100.00;98279.84;5073612;28;20024;-85
2023/01/15 04:16:37;;;;;;;4.47;3.20;;;;;;;7.50;100.00;98273.09;5073645;28;20024;-84
2023/01/15 04:19:03;;;;;;;4.78;3.17;;;;;;;7.40;100.00;98256.38;5073655;28;20024;-84
2023/01/15 04:21:29;;;;;;;2.80;2.50;;;;;;;7.39;100.00;98257.28;5073455;28;20073;-83
2023/01/15 04:23:54;;;;;;;3.30;2.90;;;;;;;7.42;100.00;98262.31;5073599;28;20017;-84
2023/01/15 04:26:20;;;;;;;5.55;2.95;;;;;;;7.34;100.00;98254.13;5073250;28;20095;-86
2023/01/15 04:28:45;;;;;;;4.45;3.38;;;;;;;7.34;100.00;98248.94;5050818;28;20183;-85
2023/01/15 04:31:11;;;;;;;4.38;3.13;;;;;;;7.38;100.00;98255.63;5050705;28;20158;-84
2023/01/15 04:33:37;;;;;;;3.78;2.65;;;;;;;7.39;100.00;98250.34;5034073;28;20039;-83
2023/01/15 04:36:03;;;;;;;4.25;2.92;;;;;;;7.40;100.00;98238.25;5033868;28;20052;-79
2023/01/15 04:38:29;;;;;;;4.30;2.92;;;;;;;7.42;100.00;98236.41;5050382;28;20029;-82
2023/01/15 04:46:23;;;;;;;3.33;2.75;;;;;;;7.41;100.00;98209.66;5050713;28;20036;-76
2023/01/15 04:48:49;;;;;;;4.50;2.50;;;;;;;7.44;100.00;98209.47;5050758;28;20530;-76
2023/01/15 04:51:14;;;;;;;2.83;2.42;;;;;;;7.48;100.00;98207.56;5050476;28;20029;-76
2023/01/15 04:53:40;;;;;;;4.72;2.25;;;;;;;7.48;100.00;98213.56;5050627;28;20033;-76
2023/01/15 04:56:06;;;;;;;3.65;2.40;;;;;;;7.47;100.00;98196.38;5050254;28;20365;-76
2023/01/15 04:58:33;;;;;;;3.90;2.80;;;;;;;7.52;100.00;98208.22;5050338;28;20021;-76
2023/01/15 05:00:59;;;;;;;4.28;2.95;;;;;;;7.45;100.00;98198.19;5072773;28;20021;-76
2023/01/15 05:03:25;;;;;;;4.25;2.75;;;;;;;7.51;100.00;98202.22;5072793;28;20035;-76
2023/01/15 05:05:51;;;;;;;4.05;2.72;;;;;;;7.48;100.00;98192.00;5072759;28;20028;-76
2023/01/15 05:08:16;;;;;;;4.63;2.97;;;;;;;7.42;100.00;98169.91;5072631;28;20027;-76
2023/01/15 05:10:42;;;;;;;3.50;2.67;;;;;;;7.43;100.00;98186.25;5072777;28;20100;-76
2023/01/15 05:13:07;;;;;;;4.40;3.28;;;;;;;7.40;100.00;98183.84;5072478;28;20036;-76
2023/01/15 05:15:32;;;;;;;4.80;3.00;;;;;;;7.45;100.00;98194.78;5072677;28;20028;-76
2023/01/15 05:17:58;;;;;;;7.45;5.43;;;;;;;7.35;100.00;98181.53;5072459;28;20104;-76
2023/01/15 05:20:23;;;;;;;5.15;4.00;;;;;;;7.40;100.00;98195.03;5072211;28;20074;-76
2023/01/15 05:22:48;;;;;;;3.90;3.28;;;;;;;7.38;100.00;98188.28;5072566;28;20043;-76
2023/01/15 05:25:14;;;;;;;4.45;2.92;;;;;;;7.35;100.00;98191.03;5072072;28;20025;-76
2023/01/15 05:27:39;;;;;;;5.25;2.85;;;;;;;7.36;100.00;98187.53;5072395;28;20024;-76
2023/01/15 05:30:05;;;;;;;3.90;2.88;;;;;;;7.31;100.00;98179.19;5072325;28;20382;-76
2023/01/15 05:32:31;;;;;;;4.60;3.17;;;;;;;7.34;100.00;98186.78;5072482;28;20539;-76
2023/01/15 05:34:56;;;;;;;3.42;2.90;;;;;;;7.29;100.00;98183.59;5072442;28;20103;-76
2023/01/15 05:37:22;;;;;;;10.20;4.22;;;;;;;7.26;100.00;98182.03;5072143;28;20044;-76
2023/01/15 05:39:47;;;;;;;7.65;4.35;;;;;;;7.23;100.00;98177.88;5072299;28;20108;-76
2023/01/15 05:42:12;;;;;;;8.07;4.88;;;;;;;7.25;100.00;98181.22;5071872;28;20048;-76
2023/01/15 05:44:38;;;;;;;11.05;6.50;;;;;;;7.27;100.00;98188.06;5072092;28;20067;-76
2023/01/15 05:47:06;;;;;;;14.52;6.50;;;;;;;7.32;100.00;98186.03;5072284;28;20412;-76
2023/01/15 05:49:32;;;;;;;9.30;4.60;;;;;;;7.32;100.00;98188.63;5071995;28;20029;-76
2023/01/15 05:51:59;;;;;;;13.02;6.70;;;;;;;7.23;100.00;98179.63;5072196;28;20052;-76
2023/01/15 05:54:30;;;;;;;10.00;5.22;;;;;;;7.25;100.00;98188.16;5071751;28;20021;-76
2023/01/15 05:56:56;;;;;;;8.82;4.88;;;;;;;7.28;100.00;98193.13;5071675;28;20416;-76
2023/01/15 05:59:24;;;;;;;7.25;4.10;;;;;;;7.24;100.00;98184.69;5071875;28;20104;-76
2023/01/15 06:01:51;;;;;;;8.52;5.15;;;;;;;7.30;100.00;98190.47;5072001;28;20029;-76
2023/01/15 06:04:19;;;;;;;10.13;4.88;;;;;;;7.28;100.00;98194.91;5071994;28;20051;-76
2023/01/15 06:06:46;;;;;;;4.18;3.10;;;;;;;7.29;100.00;98197.41;5071947;28;20020;-75
2023/01/15 06:09:11;;;;;;;5.13;3.22;;;;;;;7.25;100.00;98195.91;5071752;28;20028;-77
2023/01/15 06:11:36;;;;;;;5.68;3.45;;;;;;;7.25;100.00;98190.75;5071790;28;20031;-76
2023/01/15 06:14:02;;;;;;;5.82;3.50;;;;;;;7.24;100.00;98202.00;5072016;28;20341;-75
2023/01/15 06:16:27;;;;;;;4.78;3.75;;;;;;;7.18;100.00;98186.81;5071484;28;20021;-75
2023/01/15 06:18:53;;;;;;;4.13;3.33;;;;;;;7.21;100.00;98184.91;5074175;28;20098;-75
2023/01/15 06:21:18;;;;;;;5.80;4.38;;;;;;;7.19;100.00;98185.88;5075822;28;20048;-75
2023/01/15 06:23:44;;;;;;;5.22;3.63;;;;;;;7.16;100.00;98180.88;5075819;28;20077;-76
2023/01/15 06:26:15;;;;;;;4.90;3.92;;;;;;;7.18;100.00;98173.88;5075693;28;20107;-76
2023/01/15 06:28:41;;;;;;;5.45;4.30;;;;;;;7.04;100.00;98151.34;5075991;28;20400;-75
2023/01/15 06:31:09;;;;;;;6.78;5.15;;;;;;;7.18;100.00;98187.66;5075915;28;20111;-76
2023/01/15 06:33:34;;;;;;;6.28;4.07;;;;;;;7.15;100.00;98169.69;5075696;28;20023;-76
2023/01/15 06:36:08;;;;;;;5.25;4.25;;;;;;;7.20;100.00;98170.25;5075497;28;20045;-76
2023/01/15 06:38:33;;;;;;;5.40;4.07;;;;;;;7.11;100.00;98155.25;5075257;28;20615;-76
2023/01/15 06:41:01;;;;;;;5.53;3.88;;;;;;;7.22;100.00;98170.19;5075782;28;20116;-76
2023/01/15 06:49:14;;;;;;;4.25;3.17;;;;;;;7.26;100.00;98166.50;5052686;28;20080;-76
2023/01/15 06:51:39;;;;;;;5.60;3.45;;;;;;;7.34;100.00;98173.84;5052918;28;20493;-76
2023/01/15 06:54:04;;;;;;;5.00;3.05;;;;;;;7.37;100.00;98177.06;5052881;28;20468;-76
2023/01/15 06:56:29;;;;;;;4.50;3.15;;;;;;;7.35;100.00;98153.03;5052747;28;20551;-76
2023/01/15 06:58:55;;;;;;;4.20;2.90;;;;;;;7.41;100.00;98172.56;5052728;28;20415;-76
2023/01/15 07:01:20;;;;;;;3.47;2.72;;;;;;;7.43;100.00;98162.94;5052657;28;20024;-76
2023/01/15 07:03:46;;;;;;;3.17;2.60;;;;;;;7.46;100.00;98162.78;5052964;28;20086;-76
2023/01/15 07:06:12;;;;;;;3.20;2.20;;;;;;;7.52;100.00;98165.00;5052955;28;20021;-76
2023/01/15 07:08:38;;;;;;;2.05;1.80;;;;;;;7.49;100.00;98149.63;5052473;28;20375;-76
2023/01/15 07:11:05;;;;;;;1.80;1.70;;;;;;;7.60;100.00;98162.81;5052617;28;20119;-76
2023/01/15 07:13:30;;;;;;;1.70;1.60;;;;;;;7.59;100.00;98144.78;5052420;28;20108;-76
2023/01/15 07:15:57;;;;;;;2.47;1.90;;;;;;;7.67;100.00;98155.53;5052696;28;20136;-76
2023/01/15 07:18:23;;;;;;;2.42;1.80;;;;;;;7.70;100.00;98158.75;5073694;28;20036;-76
2023/01/15 07:20:48;;;;;;;2.05;1.90;;;;;;;7.65;100.00;98136.63;5074912;28;20030;-76
2023/01/15 07:23:13;;;;;;;3.40;2.03;;;;;;;7.76;100.00;98160.16;5074884;28;20024;-76
2023/01/15 07:25:39;;;;;;;2.30;2.10;;;;;;;7.80;100.00;98155.63;5074746;28;20052;-76
2023/01/15 07:28:04;;;;;;;3.05;1.98;;;;;;;7.75;100.00;98148.97;5074683;28;20431;-76
2023/01/15 07:30:29;;;;;;;1.92;1.80;;;;;;;7.82;100.00;98166.72;5074675;28;20476;-75
2023/01/15 07:32:56;;;;;;;1.80;1.70;;;;;;;7.79;100.00;98149.59;5074491;28;20016;-76
2023/01/15 07:35:21;;;;;;;3.65;2.10;;;;;;;7.85;100.00;98149.25;5074488;28;20070;-76
2023/01/15 07:37:51;;;;;;;5.13;1.98;;;;;;;7.85;100.00;98148.41;5074643;28;20048;-76
2023/01/15 07:40:17;;;;;;;2.27;1.80;;;;;;;7.91;100.00;98138.50;5074299;28;20027;-75
2023/01/15 07:50:53;;;;;;;5.72;4.13;;;;;;;8.02;100.00;98130.09;5074300;28;20082;-75
2023/01/15 07:53:19;;;;;;;5.82;4.05;;;;;;;8.08;100.00;98142.66;5074111;28;20017;-76
2023/01/15 07:55:44;;;;;;;4.43;3.25;;;;;;;8.14;100.00;98144.06;5074042;28;20499;-75
2023/01/15 07:58:09;;;;;;;4.40;3.10;;;;;;;8.12;100.00;98144.16;5074339;28;20094;-75
2023/01/15 08:00:35;;;;;;;7.97;3.97;;;;;;;8.20;100.00;98148.88;5074059;28;20025;-75
2023/01/15 08:03:02;;;;;;;4.03;2.40;;;;;;;8.23;100.00;98149.53;5074011;28;20447;-76
2023/01/15 08:05:27;;;;;;;4.50;2.40;;;;;;;8.19;100.00;98136.84;5073779;28;20055;-76
2023/01/15 08:07:53;;;;;;;3.40;2.20;;;;;;;8.29;100.00;98134.50;5074010;28;20048;-76
2023/01/15 08:10:18;;;;;;;4.25;2.45;;;;;;;8.29;100.00;98121.53;5073685;28;20020;-76
2023/01/15 08:15:33;;;;;;;4.15;2.50;;;;;;;8.36;100.00;98128.84;5073619;28;20035;-76
2023/01/15 08:17:58;;;;;;;;;;;;;;;8.43;100.00;98144.91;5074330;28;20471;-76
2023/01/15 08:20:25;;;;;;;4.57;2.97;;;;;;;8.43;100.00;98135.38;5073408;28;19908;-76
2023/01/15 08:22:50;;;;;;;3.65;2.20;;;;;;;8.37;100.00;98135.72;5073618;28;20442;-76
2023/01/15 08:25:23;;;;;;;3.10;2.10;;;;;;;8.41;99.77;98138.97;5073836;28;20021;-76
2023/01/15 08:27:49;;;;;;;2.65;2.25;;;;;;;8.49;100.00;98140.16;5073790;28;20349;-76
2023/01/15 08:30:19;;;;;;;3.00;2.70;;;;;;;8.50;100.00;98147.00;5073751;28;20040;-76
2023/01/15 08:32:44;;;;;;;5.85;3.58;;;;;;;8.45;100.00;98143.88;5073477;28;20085;-76
2023/01/15 08:35:11;;;;;;;6.28;3.47;;;;;;;8.43;100.00;98132.78;5073374;28;20032;-76
2023/01/15 08:37:37;;;;;;;4.72;3.50;;;;;;;8.44;100.00;98134.44;5073404;28;20115;-76
2023/01/15 08:40:03;;;;;;;5.00;3.70;;;;;;;8.35;100.00;98122.00;5073126;28;20116;-76
2023/01/15 08:42:28;;;;;;;4.93;3.80;;;;;;;8.30;100.00;98118.88;5072636;28;20067;-76
2023/01/15 08:44:54;;;;;;;8.30;4.80;;;;;;;8.39;100.00;98131.31;5073283;28;20051;-76
2023/01/15 08:47:19;;;;;;;8.18;5.20;;;;;;;8.39;100.00;98141.69;5073262;28;20047;-76
2023/01/15 08:49:46;;;;;;;5.50;4.45;;;;;;;8.40;100.00;98137.31;5071610;28;20035;-76
2023/01/15 08:52:12;;;;;;;6.25;4.13;;;;;;;8.33;100.00;98129.03;5073258;28;20349;-76
2023/01/15 08:54:37;;;;;;;6.95;4.00;;;;;;;8.41;99.44;98138.97;5072714;28;20020;-76
2023/01/15 08:57:02;;;;;;;5.18;4.20;;;;;;;8.37;99.55;98135.72;5072947;28;20021;-76
2023/01/15 08:59:28;;;;;;;5.60;4.18;;;;;;;8.41;99.40;98132.03;5072315;28;20029;-76
2023/01/15 09:01:53;;;;;;;5.32;4.28;;;;;;;8.44;99.54;98137.03;5072747;28;20063;-76
2023/01/15 09:04:20;;;;;;;7.03;4.70;;;;;;;8.43;98.91;98137.97;5072659;28;20472;-76
2023/01/15 09:06:46;;;;;;;7.88;5.10;;;;;;;8.43;98.89;98132.78;5072683;28;20036;-76
2023/01/15 09:09:12;;;;;;;11.68;8.85;;;;;;;8.33;98.48;98113.47;5072609;28;20460;-76
2023/01/15 09:11:39;;;;;;;7.40;4.78;;;;;;;8.38;98.36;98131.38;5072613;28;20035;-75
2023/01/15 09:14:09;;;;;;;7.55;5.38;;;;;;;8.31;98.42;98124.88;5072729;28;20099;-75
2023/01/15 09:16:35;;;;;;;6.18;4.72;;;;;;;8.33;98.36;98123.03;5072426;28;20025;-75
2023/01/15 09:19:00;;;;;;;6.68;4.25;;;;;;;8.33;98.19;98141.19;5072392;28;20024;-76
2023/01/15 09:21:26;;;;;;;13.40;6.88;;;;;;;8.34;98.52;98135.88;5072441;28;20029;-75
2023/01/15 09:23:51;;;;;;;13.48;6.75;;;;;;;8.33;98.21;98130.81;5072121;28;20090;-75
2023/01/15 09:26:37;;;;;;;13.60;7.07;;;;;;;8.42;97.98;98136.28;5072253;28;20028;-75
2023/01/15 09:29:04;;;;;;;14.38;7.50;;;;;;;8.40;97.83;98132.97;5072420;28;20035;-76
2023/01/15 09:31:30;;;;;;;9.63;5.88;;;;;;;8.44;98.07;98131.84;5060494;28;20026;-80
2023/01/15 09:33:56;;;;;;;9.23;5.40;;;;;;;8.41;97.28;98129.44;5052467;28;20035;-80
2023/01/15 09:36:27;;;;;;;10.65;6.20;;;;;;;8.42;97.15;98133.69;5052180;28;20113;-80
2023/01/15 09:38:54;;;;;;;9.95;6.25;;;;;;;8.43;97.13;98122.41;5052284;28;20023;-77
2023/01/15 09:44:24;;;;;;;10.35;5.32;;;;;;;8.47;96.72;98133.44;5052203;28;20167;-77
2023/01/15 09:47:04;;;;;;;10.02;6.82;;;;;;;8.43;96.16;98137.97;5052288;28;20096;-76
2023/01/15 09:49:43;;;;;;;9.57;5.97;;;;;;;8.40;95.71;98135.56;5051962;28;20510;-78
2023/01/15 09:52:23;;;;;;;15.55;7.07;;;;;;;8.38;95.69;98126.19;5051668;28;20025;-78
2023/01/15 09:55:11;;;;;;;12.23;7.97;;;;;;;8.35;95.68;98118.59;5070229;28;20364;-78
2023/01/15 09:57:38;;;;;;;13.80;8.20;;;;;;;8.40;95.90;98126.94;5071573;28;20028;-77
2023/01/15 10:00:06;;;;;;;9.23;6.85;;;;;;;8.39;95.71;98126.13;5071522;28;20012;-78
2023/01/15 10:02:47;;;;;;;8.18;6.18;;;;;;;8.42;95.87;98131.09;5071490;28;20024;-77
2023/01/15 10:05:20;;;;;;;;;;;;;;;8.41;95.32;98113.88;5072056;28;20471;-77
2023/01/15 10:08:05;;;;;;;9.38;5.78;;;;;;;8.41;95.37;98111.28;5071550;28;19916;-77
2023/01/15 10:10:43;;;;;;;8.25;5.13;;;;;;;8.32;94.97;98098.00;5071603;28;20032;-76
2023/01/15 10:13:50;;;;;;;5.85;5.00;;;;;;;8.35;95.21;98106.44;5071630;28;20456;-76
2023/01/15 10:16:25;;;;;;;6.50;4.70;;;;;;;8.25;95.34;98102.75;5069021;28;20411;-76
2023/01/15 10:18:52;;;;;;;8.30;5.50;;;;;;;8.31;95.38;98114.50;5068441;28;20067;-76
2023/01/15 10:21:46;;;;;;;8.88;5.95;;;;;;;8.33;95.55;98108.28;5069032;28;20036;-78
2023/01/15 10:24:22;;;;;;;6.13;5.18;;;;;;;8.27;95.07;98098.31;5068858;28;20407;-78
2023/01/15 10:26:54;;;;;;;6.47;5.07;;;;;;;8.30;95.10;98100.72;5068693;28;20590;-77
2023/01/15 10:29:36;;;;;;;7.13;5.00;;;;;;;8.29;95.05;98106.81;5069110;28;20082;-77
2023/01/15 10:32:20;;;;;;;11.85;5.95;;;;;;;8.30;95.47;98100.72;5069207;28;20031;-78
2023/01/15 10:35:42;;;;;;;7.25;5.82;;;;;;;8.30;95.28;98089.47;5068958;28;20440;-78
2023/01/15 10:38:22;;;;;;;8.18;5.05;;;;;;;8.27;95.61;98090.53;4990033;28;20034;-76
2023/01/15 10:40:56;;;;;;;6.65;5.28;;;;;;;8.28;95.44;98088.75;4989833;28;20073;-76
2023/01/15 10:43:39;;;;;;;5.97;4.90;;;;;;;8.21;95.45;98075.31;4989819;28;20072;-76
2023/01/15 10:46:15;;;;;;;7.47;4.82;;;;;;;8.24;95.02;98078.56;4989884;28;20116;-76
2023/01/15 10:48:55;;;;;;;7.80;5.80;;;;;;;8.12;94.83;98070.72;4989530;28;20038;-76
2023/01/15 10:51:29;;;;;;;8.02;5.97;;;;;;;8.20;94.83;98081.44;4988731;28;20034;-78
2023/01/15 10:54:01;;;;;;;7.88;6.10;;;;;;;8.22;95.15;98085.63;5006479;28;20045;-76
2023/01/15 10:57:02;;;;;;;8.02;6.05;;;;;;;8.23;95.05;98081.25;5009130;28;20045;-76
2023/01/15 10:59:36;;;;;;;6.63;5.20;;;;;;;8.22;94.93;98077.84;5009215;28;20022;-76
2023/01/15 11:02:06;;;;;;;6.18;5.05;;;;;;;8.21;94.93;98068.38;5008808;28;20496;-76
2023/01/15 11:04:32;;;;;;;5.63;4.53;;;;;;;8.26;94.82;98078.50;5010682;28;20040;-77
2023/01/15 11:06:59;;;;;;;6.90;5.43;;;;;;;8.30;94.70;98081.69;5012715;28;20104;-77
2023/01/15 11:09:31;;;;;;;10.55;7.15;;;;;;;8.22;94.57;98072.66;5042734;28;20036;-77
2023/01/15 11:20:27;;;;;;;32.47;20.42;;;;;;;8.34;95.15;98109.94;5054538;28;20122;-78
2023/01/15 11:22:55;;;;;;;38.63;21.17;;;;;;;8.29;95.46;98101.63;5054456;28;20508;-79
2023/01/15 11:25:29;;;;;;;41.78;24.63;;;;;;;8.32;95.27;98105.78;5054469;28;20111;-78
2023/01/15 11:27:55;;;;;;;44.05;30.42;;;;;;;8.37;95.33;98120.16;5053773;28;20027;-77
2023/01/15 11:30:33;;;;;;;36.97;26.73;;;;;;;8.36;95.50;98131.44;5054148;28;20040;-77
2023/01/15 11:33:05;;;;;;;29.58;22.85;;;;;;;8.37;95.68;98134.91;5054480;28;20078;-76
2023/01/15 11:35:32;;;;;;;17.55;15.43;;;;;;;8.36;95.65;98139.22;5054257;28;20484;-77
2023/01/15 11:38:15;;;;;;;20.60;18.42;;;;;;;8.36;95.88;98147.00;5054031;28;20079;-76
2023/01/15 11:40:51;;;;;;;22.33;18.02;;;;;;;8.34;96.05;98155.81;5053917;28;20036;-77
2023/01/15 11:52:01;;;;;;;17.95;11.40;;;;;;;8.30;96.81;98175.94;5054012;28;20036;-80
2023/01/15 11:54:31;;;;;;;18.85;12.15;;;;;;;8.29;97.25;98183.78;5053783;28;20039;-80
2023/01/15 11:57:01;;;;;;;16.45;11.18;;;;;;;8.28;97.53;98182.13;5053651;28;20460;-80
2023/01/15 11:59:26;;;;;;;15.50;10.18;;;;;;;8.27;98.07;98181.31;5053796;28;20070;-78
2023/01/15 12:01:58;;;;;;;13.70;8.77;;;;;;;8.20;98.32;98182.59;5053841;28;20029;-78
2023/01/15 12:04:35;;;;;;;11.02;7.55;;;;;;;8.14;98.89;98175.19;5053933;28;20453;-80
2023/01/15 12:07:02;;;;;;;11.05;7.40;;;;;;;8.05;99.33;98173.13;5053927;28;20052;-78
2023/01/15 12:09:33;;;;;;;8.82;6.97;;;;;;;8.07;99.49;98187.69;5053909;28;20025;-78
2023/01/15 12:12:06;;;;;;;8.13;6.10;;;;;;;8.05;100.00;98181.78;5053702;28;20027;-78
2023/01/15 12:14:51;;;;;;;10.77;6.75;;;;;;;8.00;100.00;98194.97;5054057;28;20028;-78
2023/01/15 12:17:16;;;;;;;6.95;4.30;;;;;;;7.96;100.00;98192.66;5052976;28;20020;-78
2023/01/15 12:20:21;;;;;;;7.82;5.05;;;;;;;7.91;100.00;98200.72;5053474;28;20037;-78
2023/01/15 12:23:05;;;;;;;8.65;6.10;;;;;;;7.85;100.00;98208.88;5053598;28;20031;-77
2023/01/15 12:25:45;;;;;;;8.35;5.47;;;;;;;7.79;100.00;98221.34;5053891;28;20155;-77
2023/01/15 12:28:17;;;;;;;6.75;5.20;;;;;;;7.69;100.00;98210.69;5053655;28;20427;-78
2023/01/15 12:31:10;;;;;;;16.52;9.13;;;;;;;7.66;100.00;98229.81;5062660;28;20508;-79
2023/01/15 12:33:48;;;;;;;20.10;11.73;;;;;;;7.61;100.00;98237.03;5072045;28;20044;-79